Time;durP1;ratioP1;P1;durP2;ratioP2;P2;SDS_P1;SDS_P2;PMS_P1;PMS_P2;Temp;Humidity;BMP_temperature;BMP_pressure;BME280_temperature;BME280_humidity;BME280_pressure;Samples;Min_cycle;Max_cycle;Signal;HPM_P1;HPM_P2
2023/10/05 00:01:27;;;;;;;16.63;5.90;;;13.90;55.80;;;;;;4991031;28;20405;-74
2023/10/05 00:03:46;;;;;;;16.27;6.18;;;14.00;55.50;;;;;;4990364;28;20461;-74
2023/10/05 00:06:17;;;;;;;14.15;5.30;;;14.00;55.00;;;;;;4989275;28;20438;-75
2023/10/05 00:08:47;;;;;;;14.80;5.90;;;14.00;54.00;;;;;;4990611;28;20410;-73
2023/10/05 00:13:59;;;;;;;15.05;5.65;;;14.00;54.90;;;;;;4990572;28;20900;-74
2023/10/05 00:16:36;;;;;;;19.00;6.10;;;14.10;54.20;;;;;;4990834;28;20506;-74
2023/10/05 00:19:12;;;;;;;18.83;6.30;;;14.00;54.60;;;;;;4989434;28;20889;-75
2023/10/05 00:21:51;;;;;;;19.33;5.78;;;14.00;54.80;;;;;;4990971;28;20391;-74
2023/10/05 00:24:26;;;;;;;19.70;5.80;;;14.00;55.00;;;;;;4994264;28;20429;-74
2023/10/05 00:26:56;;;;;;;19.85;5.57;;;14.00;55.10;;;;;;4993855;28;20512;-74
2023/10/05 00:29:28;;;;;;;21.92;5.75;;;14.00;54.80;;;;;;4994066;28;20390;-75
2023/10/05 00:31:59;;;;;;;19.65;6.20;;;14.00;55.10;;;;;;4993757;28;20956;-74
2023/10/05 00:34:27;;;;;;;12.95;5.20;;;14.00;54.90;;;;;;4994499;28;20785;-74
2023/10/05 00:36:59;;;;;;;19.23;5.50;;;14.00;55.10;;;;;;4993964;28;20731;-73
2023/10/05 00:39:48;;;;;;;16.83;5.38;;;14.00;54.20;;;;;;4993829;28;20389;-74
2023/10/05 00:42:15;;;;;;;12.73;5.03;;;14.10;53.80;;;;;;4993537;28;20418;-73
2023/10/05 00:44:42;;;;;;;15.68;5.45;;;14.20;53.20;;;;;;4993664;28;20457;-75
2023/10/05 00:47:11;;;;;;;15.93;5.72;;;14.10;53.70;;;;;;4993714;28;20390;-75
2023/10/05 00:49:52;;;;;;;18.08;5.90;;;14.20;52.70;;;;;;4993671;28;20782;-72
2023/10/05 00:52:24;;;;;;;18.58;5.90;;;14.20;52.90;;;;;;4993460;28;20389;-74
2023/10/05 00:54:51;;;;;;;23.10;5.75;;;14.20;52.90;;;;;;4995661;28;20485;-74
2023/10/05 00:57:22;;;;;;;17.95;5.50;;;14.10;53.70;;;;;;4994155;28;20387;-74
2023/10/05 01:00:26;;;;;;;20.88;5.47;;;14.00;54.50;;;;;;4993209;28;20784;-74
2023/10/05 01:03:04;;;;;;;16.17;4.72;;;14.00;54.20;;;;;;4992865;28;20776;-74
2023/10/05 01:05:34;;;;;;;17.40;5.00;;;14.00;54.80;;;;;;4993182;28;20430;-75
2023/10/05 01:08:04;;;;;;;16.95;5.10;;;13.90;55.20;;;;;;4993288;28;20405;-74
2023/10/05 01:10:42;;;;;;;21.98;5.63;;;13.90;55.70;;;;;;4993308;28;20745;-75
2023/10/05 01:13:32;;;;;;;12.20;4.53;;;13.90;55.50;;;;;;4992994;28;20391;-73
2023/10/05 01:15:59;;;;;;;18.08;4.72;;;13.90;55.70;;;;;;4993566;28;20378;-74
2023/10/05 01:18:26;;;;;;;15.75;4.90;;;13.90;55.80;;;;;;4993288;28;20513;-75
2023/10/05 01:20:52;;;;;;;14.30;4.75;;;14.00;54.30;;;;;;4993141;28;20453;-74
2023/10/05 01:23:28;;;;;;;13.93;4.95;;;14.00;54.70;;;;;;4992976;28;20394;-74
2023/10/05 01:25:55;;;;;;;13.88;4.97;;;13.90;56.60;;;;;;4991531;28;20931;-74
2023/10/05 01:28:21;;;;;;;18.45;5.13;;;13.80;56.20;;;;;;4991557;28;20390;-74
2023/10/05 01:30:47;;;;;;;18.95;5.00;;;13.90;55.80;;;;;;4992693;28;20457;-73
2023/10/05 01:33:13;;;;;;;13.47;5.27;;;13.90;55.80;;;;;;4993317;28;20448;-73
2023/10/05 01:35:41;;;;;;;19.37;5.70;;;14.00;54.80;;;;;;4995226;28;20535;-74
2023/10/05 01:38:07;;;;;;;14.07;4.68;;;14.00;55.50;;;;;;4997216;28;20885;-73
2023/10/05 01:40:36;;;;;;;13.93;4.40;;;14.10;54.70;;;;;;4994919;28;20397;-73
2023/10/05 01:43:02;;;;;;;17.80;4.70;;;14.10;54.40;;;;;;4992503;28;20477;-73
2023/10/05 01:45:33;;;;;;;18.95;5.13;;;14.00;54.90;;;;;;4992750;28;20418;-75
2023/10/05 01:48:11;;;;;;;17.10;5.13;;;14.20;53.60;;;;;;4992966;28;20757;-74
2023/10/05 01:50:37;;;;;;;24.25;5.18;;;14.10;54.60;;;;;;4993039;28;20387;-73
2023/10/05 01:55:35;;;;;;;10.80;4.78;;;14.00;56.20;;;;;;4992853;28;20465;-73
2023/10/05 01:58:03;;;;;;;20.02;4.72;;;14.00;55.40;;;;;;4992403;28;20383;-74
2023/10/05 02:00:31;;;;;;;15.50;4.53;;;14.00;55.90;;;;;;4992610;28;20813;-75
2023/10/05 02:02:56;;;;;;;11.93;4.70;;;14.10;55.10;;;;;;4992705;28;20427;-74
2023/10/05 02:05:22;;;;;;;15.50;4.70;;;14.10;54.30;;;;;;4993226;28;20406;-75
2023/10/05 02:07:50;;;;;;;12.93;4.33;;;14.00;55.70;;;;;;4993229;28;20398;-73
2023/10/05 02:10:21;;;;;;;12.05;4.30;;;14.10;56.30;;;;;;4993633;28;20418;-75
2023/10/05 02:12:54;;;;;;;17.60;5.70;;;14.10;55.80;;;;;;4991745;28;20389;-74
2023/10/05 02:15:28;;;;;;;17.65;5.10;;;14.10;55.40;;;;;;4993290;28;20454;-74
2023/10/05 02:17:54;;;;;;;13.90;4.72;;;14.20;54.90;;;;;;4992099;28;20809;-74
2023/10/05 02:22:58;;;;;;;24.80;5.30;;;14.20;54.10;;;;;;4992979;28;20453;-74
2023/10/05 02:25:33;;;;;;;14.98;4.65;;;14.10;54.30;;;;;;4991913;28;20410;-73
2023/10/05 02:27:59;;;;;;;13.35;4.28;;;14.10;54.80;;;;;;4993819;28;20394;-74
2023/10/05 02:30:27;;;;;;;12.40;3.97;;;14.10;55.10;;;;;;4993645;28;20409;-74
2023/10/05 02:32:58;;;;;;;16.20;4.22;;;14.10;55.00;;;;;;4992549;28;20441;-74
2023/10/05 02:35:30;;;;;;;16.00;4.88;;;14.10;55.50;;;;;;4993100;28;20387;-74
2023/10/05 02:37:58;;;;;;;15.65;4.05;;;14.20;54.30;;;;;;4992413;28;20409;-74
2023/10/05 02:40:26;;;;;;;22.05;5.10;;;14.10;54.70;;;;;;4992290;28;20955;-73
2023/10/05 02:42:54;;;;;;;15.30;4.70;;;14.10;54.60;;;;;;4990570;28;20892;-74
2023/10/05 02:45:21;;;;;;;13.68;4.70;;;14.10;54.70;;;;;;4991907;28;20434;-76
2023/10/05 02:47:48;;;;;;;13.05;4.40;;;14.00;55.30;;;;;;4992351;28;20461;-75
2023/10/05 02:50:14;;;;;;;13.07;4.50;;;14.10;54.80;;;;;;4992358;28;20910;-75
2023/10/05 02:52:40;;;;;;;13.33;4.50;;;14.00;55.40;;;;;;4991987;28;20382;-75
2023/10/05 02:55:07;;;;;;;17.30;4.60;;;14.10;55.20;;;;;;4992738;28;20533;-74
2023/10/05 02:57:33;;;;;;;15.55;4.35;;;14.20;54.00;;;;;;4992344;28;20437;-75
2023/10/05 02:59:59;;;;;;;15.70;4.80;;;14.10;54.20;;;;;;4992288;28;20497;-74
2023/10/05 03:02:25;;;;;;;11.63;4.30;;;14.10;54.80;;;;;;4992047;28;20399;-75
2023/10/05 03:04:57;;;;;;;12.30;4.20;;;14.10;54.80;;;;;;4992047;28;20390;-74
2023/10/05 03:07:26;;;;;;;12.65;4.60;;;14.10;54.90;;;;;;4992555;28;20481;-74
2023/10/05 03:09:58;;;;;;;14.73;4.75;;;14.10;54.30;;;;;;4992061;28;20394;-74
2023/10/05 03:12:23;;;;;;;10.07;4.22;;;14.00;54.70;;;;;;4991374;28;20477;-74
2023/10/05 03:14:54;;;;;;;13.10;4.00;;;13.90;55.80;;;;;;4991641;28;20386;-74
2023/10/05 03:17:21;;;;;;;13.50;4.40;;;14.00;55.80;;;;;;4991888;28;20480;-74
2023/10/05 03:19:48;;;;;;;12.20;4.30;;;13.90;55.80;;;;;;4991816;28;20394;-74
2023/10/05 03:22:14;;;;;;;11.27;4.18;;;13.90;55.70;;;;;;4991646;28;20474;-74
2023/10/05 03:24:44;;;;;;;12.57;4.75;;;13.90;55.90;;;;;;4991543;28;20426;-74
2023/10/05 03:27:14;;;;;;;14.15;4.53;;;13.80;57.00;;;;;;4992222;28;20386;-74
2023/10/05 03:29:42;;;;;;;16.15;4.43;;;13.80;57.00;;;;;;4992165;28;20394;-74
2023/10/05 03:34:35;;;;;;;15.00;4.95;;;13.80;57.20;;;;;;4991530;28;20473;-73
2023/10/05 03:37:04;;;;;;;13.55;4.60;;;13.70;58.20;;;;;;4991083;28;20444;-74
2023/10/05 03:39:33;;;;;;;13.13;4.33;;;13.60;59.00;;;;;;4991282;28;20861;-74
2023/10/05 03:41:59;;;;;;;20.50;4.78;;;13.60;59.50;;;;;;4991112;28;20390;-74
2023/10/05 03:44:25;;;;;;;11.77;4.30;;;13.50;59.70;;;;;;4991409;28;20426;-73
2023/10/05 03:46:52;;;;;;;9.40;3.80;;;13.50;60.20;;;;;;4991232;28;20549;-74
2023/10/05 03:49:21;;;;;;;8.45;3.60;;;13.50;60.50;;;;;;4991394;28;20393;-73
2023/10/05 03:51:50;;;;;;;14.55;4.10;;;13.40;61.30;;;;;;4990871;28;20390;-74
2023/10/05 03:54:24;;;;;;;15.88;4.45;;;13.40;61.50;;;;;;4990999;28;20394;-73
2023/10/05 03:56:50;;;;;;;14.13;4.30;;;13.50;61.30;;;;;;4994582;28;20383;-73
2023/10/05 03:59:16;;;;;;;8.65;4.10;;;13.40;61.30;;;;;;4994483;28;20927;-73
2023/10/05 04:01:48;;;;;;;10.52;4.60;;;13.40;62.00;;;;;;4994388;28;20410;-73
2023/10/05 04:04:21;;;;;;;18.55;4.80;;;13.50;61.60;;;;;;4994566;28;20445;-74
2023/10/05 04:06:51;;;;;;;13.50;4.32;;;13.50;61.80;;;;;;4994194;28;20417;-74
2023/10/05 04:09:19;;;;;;;13.88;4.40;;;13.50;61.00;;;;;;4994056;28;21015;-73
2023/10/05 04:11:45;;;;;;;15.95;4.60;;;13.50;60.60;;;;;;4993930;28;20404;-73
2023/10/05 04:14:12;;;;;;;12.82;4.10;;;13.60;60.40;;;;;;4994195;28;20390;-74
2023/10/05 04:16:38;;;;;;;11.23;4.45;;;13.60;60.60;;;;;;4994057;28;20885;-73
2023/10/05 04:19:04;;;;;;;12.15;3.85;;;13.60;60.20;;;;;;4993988;28;20398;-73
2023/10/05 04:21:33;;;;;;;11.10;3.85;;;13.50;61.10;;;;;;4993927;28;20398;-73
2023/10/05 04:23:59;;;;;;;14.63;4.55;;;13.50;60.60;;;;;;4994101;28;20893;-74
2023/10/05 04:26:32;;;;;;;9.68;3.95;;;13.60;60.10;;;;;;4992786;28;20505;-73
2023/10/05 04:29:03;;;;;;;12.35;4.10;;;13.60;59.50;;;;;;4994116;28;20418;-74
2023/10/05 04:31:29;;;;;;;18.30;4.50;;;13.60;59.50;;;;;;4994004;28;20387;-74
2023/10/05 04:33:55;;;;;;;12.95;3.90;;;13.60;59.50;;;;;;4994194;28;20382;-74
2023/10/05 04:36:22;;;;;;;15.05;4.45;;;13.60;59.20;;;;;;4994184;28;20429;-75
2023/10/05 04:38:50;;;;;;;17.05;4.35;;;13.60;59.30;;;;;;4993829;28;20394;-75
2023/10/05 04:41:19;;;;;;;15.40;4.07;;;13.60;59.30;;;;;;4993348;28;20401;-74
2023/10/05 04:43:47;;;;;;;11.55;3.97;;;13.60;59.30;;;;;;4993290;28;20528;-74
2023/10/05 04:46:17;;;;;;;11.00;3.72;;;13.60;59.10;;;;;;4993247;28;20418;-73
2023/10/05 04:48:55;;;;;;;11.70;4.18;;;13.60;60.00;;;;;;4993350;28;20391;-74
2023/10/05 04:51:32;;;;;;;12.53;3.70;;;13.50;60.10;;;;;;4993191;28;20432;-73
2023/10/05 04:53:59;;;;;;;11.48;4.15;;;13.60;59.80;;;;;;4993492;28;20391;-74
2023/10/05 05:07:00;;;;;;;19.25;4.10;;;13.40;62.20;;;;;;4992497;28;20422;-74
2023/10/05 05:09:30;;;;;;;14.48;3.58;;;13.50;61.90;;;;;;4993081;28;20391;-73
2023/10/05 05:12:04;;;;;;;11.85;4.40;;;13.40;62.80;;;;;;4992514;28;20398;-73
2023/10/05 05:14:35;;;;;;;17.80;4.50;;;13.40;62.90;;;;;;4993738;28;20472;-74
2023/10/05 05:17:02;;;;;;;21.25;4.40;;;13.40;62.70;;;;;;4993120;28;20731;-73
2023/10/05 05:19:30;;;;;;;13.00;4.43;;;13.40;62.40;;;;;;4993053;28;20470;-72
2023/10/05 05:21:59;;;;;;;17.77;4.70;;;13.40;63.20;;;;;;4992549;28;20869;-73
2023/10/05 05:24:28;;;;;;;14.38;4.53;;;13.40;63.40;;;;;;4992751;28;20390;-73
2023/10/05 05:29:54;;;;;;;9.93;3.80;;;13.40;63.40;;;;;;4991711;28;20405;-73
2023/10/05 05:32:22;;;;;;;13.60;4.28;;;13.40;63.20;;;;;;4992383;28;20882;-74
2023/10/05 05:34:50;;;;;;;16.33;4.40;;;13.40;63.50;;;;;;4992607;28;20762;-73
2023/10/05 05:37:25;;;;;;;13.20;4.50;;;13.40;63.70;;;;;;4991374;28;20398;-73
2023/10/05 05:39:53;;;;;;;17.03;4.60;;;13.40;64.40;;;;;;4993137;28;20958;-73
2023/10/05 05:42:19;;;;;;;19.17;5.10;;;13.40;63.80;;;;;;4992467;28;20386;-75
2023/10/05 05:44:44;;;;;;;14.23;4.50;;;13.40;64.80;;;;;;4992782;28;20834;-75
2023/10/05 05:47:10;;;;;;;17.43;4.80;;;13.40;63.90;;;;;;4992405;28;20428;-76
2023/10/05 05:49:40;;;;;;;13.60;5.07;;;13.40;64.40;;;;;;4992643;28;20441;-73
2023/10/05 05:52:08;;;;;;;18.67;5.30;;;13.40;64.20;;;;;;4991323;28;20481;-73
2023/10/05 05:54:35;;;;;;;15.90;4.80;;;13.50;64.10;;;;;;4992673;28;20809;-74
2023/10/05 05:57:06;;;;;;;20.65;5.30;;;13.50;63.60;;;;;;4992257;28;20398;-74
2023/10/05 05:59:35;;;;;;;15.60;5.03;;;13.50;64.80;;;;;;4992622;28;20386;-74
2023/10/05 06:02:03;;;;;;;20.08;4.90;;;13.50;64.70;;;;;;4992048;28;20472;-75
2023/10/05 06:04:32;;;;;;;15.55;4.00;;;13.40;65.10;;;;;;4992132;28;20386;-73
2023/10/05 06:07:04;;;;;;;20.35;4.30;;;13.40;65.00;;;;;;4991553;28;20464;-75
2023/10/05 06:09:33;;;;;;;16.00;4.93;;;13.60;63.30;;;;;;4991955;28;20478;-72
2023/10/05 06:12:00;;;;;;;12.95;4.50;;;13.50;63.70;;;;;;4991568;28;20386;-74
2023/10/05 06:14:27;;;;;;;17.47;4.60;;;13.50;64.90;;;;;;4991813;28;20378;-75
2023/10/05 06:16:53;;;;;;;17.92;5.03;;;13.70;62.10;;;;;;4991643;28;20387;-73
2023/10/05 06:19:18;;;;;;;13.65;4.50;;;13.80;61.60;;;;;;4990819;28;20391;-74
2023/10/05 06:21:45;;;;;;;15.77;4.32;;;13.90;59.20;;;;;;4991547;28;20402;-74
2023/10/05 06:24:10;;;;;;;17.30;4.60;;;13.90;58.70;;;;;;4991496;28;20854;-74
2023/10/05 06:26:38;;;;;;;16.70;4.60;;;14.00;58.90;;;;;;4991327;28;20413;-73
2023/10/05 06:29:08;;;;;;;21.67;5.22;;;14.10;57.50;;;;;;4991378;28;20398;-73
2023/10/05 06:31:35;;;;;;;17.20;5.10;;;14.20;57.00;;;;;;4990796;28;20504;-75
2023/10/05 06:34:01;;;;;;;14.73;4.10;;;14.10;57.20;;;;;;4990489;28;20762;-73
2023/10/05 06:36:26;;;;;;;16.87;6.80;;;14.20;57.80;;;;;;4991935;28;20398;-73
2023/10/05 06:38:52;;;;;;;16.57;5.70;;;14.20;57.20;;;;;;4991350;28;20741;-74
2023/10/05 06:41:22;;;;;;;16.13;4.40;;;14.20;56.90;;;;;;4990808;28;20402;-73
2023/10/05 06:43:49;;;;;;;23.97;8.67;;;14.30;56.70;;;;;;4991652;28;20390;-76
2023/10/05 06:46:17;;;;;;;17.95;4.78;;;14.40;56.80;;;;;;4991106;28;20414;-74
2023/10/05 06:48:43;;;;;;;15.27;4.97;;;14.50;55.00;;;;;;4990481;28;20402;-76
2023/10/05 06:51:09;;;;;;;11.70;4.20;;;14.50;54.90;;;;;;4987335;28;20417;-73
2023/10/05 06:53:37;;;;;;;13.00;4.10;;;14.50;54.20;;;;;;4990102;28;20482;-75
2023/10/05 06:56:03;;;;;;;11.67;4.30;;;14.60;54.10;;;;;;4989349;28;21023;-74
2023/10/05 06:58:28;;;;;;;23.65;5.00;;;14.70;54.10;;;;;;4989408;28;20478;-72
2023/10/05 07:00:54;;;;;;;13.53;4.00;;;14.80;52.90;;;;;;4988664;28;20445;-74
2023/10/05 07:03:20;;;;;;;11.13;4.00;;;14.90;52.30;;;;;;4988723;28;20422;-73
2023/10/05 07:05:46;;;;;;;13.50;4.40;;;14.90;52.00;;;;;;4988360;28;20521;-73
2023/10/05 07:08:14;;;;;;;19.75;5.20;;;14.90;52.00;;;;;;4985414;28;20407;-72
2023/10/05 07:10:40;;;;;;;15.40;4.07;;;14.90;52.80;;;;;;4988222;28;20457;-74
2023/10/05 07:13:08;;;;;;;7.85;3.20;;;14.90;52.00;;;;;;4988819;28;20404;-74
2023/10/05 07:15:34;;;;;;;12.85;3.50;;;15.00;51.40;;;;;;4988524;28;20410;-74
2023/10/05 07:18:00;;;;;;;21.67;4.72;;;15.00;51.10;;;;;;4988537;28;20452;-73
2023/10/05 07:20:27;;;;;;;12.27;4.43;;;15.10;50.50;;;;;;4989155;28;20386;-73
2023/10/05 07:22:53;;;;;;;14.80;3.90;;;15.10;50.20;;;;;;4988121;28;20861;-73
2023/10/05 07:25:18;;;;;;;14.43;4.25;;;15.20;49.30;;;;;;4988887;28;20491;-74
2023/10/05 07:27:44;;;;;;;17.10;3.80;;;15.30;49.20;;;;;;4988452;28;20772;-74
2023/10/05 07:30:10;;;;;;;14.93;4.70;;;15.40;48.80;;;;;;4991114;28;20387;-73
2023/10/05 07:32:36;;;;;;;15.52;4.13;;;15.50;48.50;;;;;;4994365;28;20389;-74
2023/10/05 07:35:05;;;;;;;16.55;4.20;;;15.50;47.90;;;;;;4995157;28;20456;-74
2023/10/05 07:37:31;;;;;;;16.42;4.40;;;15.60;47.70;;;;;;4996096;28;20473;-75
2023/10/05 07:39:58;;;;;;;14.35;4.25;;;15.60;46.80;;;;;;4996291;28;20378;-74
2023/10/05 07:42:24;;;;;;;16.17;4.40;;;15.60;47.20;;;;;;4995927;28;20398;-76
2023/10/05 07:44:50;;;;;;;10.80;4.03;;;15.60;46.50;;;;;;4996849;28;20390;-74
2023/10/05 07:47:16;;;;;;;17.83;4.32;;;15.60;47.30;;;;;;4995550;28;20414;-72
2023/10/05 07:49:42;;;;;;;13.07;4.22;;;15.60;47.40;;;;;;4995821;28;20529;-74
2023/10/05 07:52:11;;;;;;;16.38;4.07;;;15.60;47.00;;;;;;4995460;28;20501;-75
2023/10/05 07:54:40;;;;;;;19.85;4.40;;;15.70;47.00;;;;;;4996032;28;20473;-74
2023/10/05 07:57:10;;;;;;;19.80;4.45;;;15.60;46.90;;;;;;4995207;28;20702;-73
2023/10/05 07:59:39;;;;;;;18.58;4.57;;;15.60;46.60;;;;;;4995192;28;20397;-75
2023/10/05 08:02:06;;;;;;;13.13;3.80;;;15.70;46.70;;;;;;4994982;28;20422;-74
2023/10/05 08:04:32;;;;;;;15.85;3.58;;;15.70;46.60;;;;;;4995845;28;20389;-75
2023/10/05 08:06:58;;;;;;;13.15;4.32;;;15.80;46.70;;;;;;4995636;28;20904;-73
2023/10/05 08:09:26;;;;;;;13.65;3.70;;;15.90;46.20;;;;;;4992430;28;20408;-73
2023/10/05 08:11:53;;;;;;;12.43;4.10;;;15.90;45.10;;;;;;4995618;28;20416;-73
2023/10/05 08:14:20;;;;;;;15.40;4.60;;;15.90;45.50;;;;;;4994300;28;20395;-72
2023/10/05 08:16:46;;;;;;;10.68;4.00;;;16.00;45.20;;;;;;4995009;28;20394;-76
2023/10/05 08:19:12;;;;;;;9.90;3.60;;;16.10;44.80;;;;;;4997116;28;20713;-75
2023/10/05 08:21:38;;;;;;;13.90;3.95;;;16.10;44.50;;;;;;4997563;28;20402;-75
2023/10/05 08:24:04;;;;;;;10.23;3.92;;;16.10;44.40;;;;;;4998146;28;20494;-76
2023/10/05 08:26:30;;;;;;;14.45;4.10;;;16.20;43.40;;;;;;4999326;28;20440;-78
2023/10/05 08:28:57;;;;;;;14.70;4.32;;;16.20;44.10;;;;;;4996923;28;20399;-73
2023/10/05 08:31:23;;;;;;;12.88;3.80;;;16.20;43.30;;;;;;4997338;28;20533;-74
2023/10/05 08:33:50;;;;;;;14.40;4.03;;;16.30;43.50;;;;;;4995566;28;20860;-74
2023/10/05 08:36:17;;;;;;;15.43;4.63;;;16.30;43.40;;;;;;4996824;28;20386;-74
2023/10/05 08:38:47;;;;;;;16.17;4.20;;;16.40;43.00;;;;;;4997285;28;20900;-75
2023/10/05 08:41:31;;;;;;;17.42;4.30;;;16.40;42.20;;;;;;4996049;28;20385;-73
2023/10/05 08:44:06;;;;;;;16.57;3.87;;;16.40;42.40;;;;;;4993499;28;20390;-73
2023/10/05 08:46:41;;;;;;;17.45;4.20;;;16.50;42.80;;;;;;4994842;28;20402;-76
2023/10/05 08:49:09;;;;;;;12.00;4.30;;;16.70;41.60;;;;;;4994861;28;20382;-76
2023/10/05 08:51:41;;;;;;;15.35;4.32;;;16.80;39.90;;;;;;4995136;28;20885;-74
2023/10/05 08:54:11;;;;;;;15.35;4.13;;;16.90;39.80;;;;;;4996134;28;20770;-74
2023/10/05 08:56:45;;;;;;;12.80;4.03;;;17.10;39.80;;;;;;4994983;28;20409;-75
2023/10/05 08:59:16;;;;;;;16.23;4.45;;;17.20;38.70;;;;;;4993552;28;20679;-76
2023/10/05 09:01:43;;;;;;;14.50;3.70;;;17.20;38.40;;;;;;4993795;28;20437;-75
2023/10/05 09:06:47;;;;;;;13.05;3.60;;;17.10;38.30;;;;;;4993411;28;20410;-76
2023/10/05 09:09:28;;;;;;;16.80;4.22;;;17.20;38.30;;;;;;5004789;23;20461;-72
2023/10/05 09:11:56;;;;;;;15.30;3.70;;;17.30;38.70;;;;;;4995062;28;20907;-74
2023/10/05 09:14:38;;;;;;;13.27;4.10;;;17.50;37.70;;;;;;4995408;28;20393;-73
2023/10/05 09:17:07;;;;;;;11.35;3.30;;;17.60;35.90;;;;;;4993367;28;20935;-74
2023/10/05 09:19:33;;;;;;;10.20;3.53;;;17.60;36.70;;;;;;4993398;28;20453;-73
2023/10/05 09:24:29;;;;;;;10.70;3.60;;;17.60;35.60;;;;;;4995555;28;20382;-73
2023/10/05 09:27:09;;;;;;;16.77;3.70;;;17.60;36.20;;;;;;4995154;28;20417;-73
2023/10/05 09:29:36;;;;;;;15.25;3.65;;;17.70;36.10;;;;;;4996204;28;20386;-72
2023/10/05 09:32:08;;;;;;;13.13;3.20;;;17.90;35.20;;;;;;4994862;28;20386;-72
2023/10/05 09:34:34;;;;;;;18.20;4.10;;;18.00;34.30;;;;;;4995512;28;20383;-73
2023/10/05 09:37:07;;;;;;;12.15;3.38;;;18.00;33.70;;;;;;4994934;28;20390;-73
2023/10/05 09:39:44;;;;;;;13.45;3.97;;;18.10;34.50;;;;;;4995807;28;20405;-74
2023/10/05 09:42:25;;;;;;;10.45;3.70;;;18.20;34.30;;;;;;4995876;28;20398;-73
2023/10/05 09:44:52;;;;;;;14.43;3.80;;;18.30;33.30;;;;;;4995762;28;20398;-75
2023/10/05 09:47:32;;;;;;;10.30;3.70;;;18.20;32.90;;;;;;4995917;28;20395;-73
2023/10/05 09:50:10;;;;;;;13.82;4.10;;;18.10;33.30;;;;;;4996449;28;20386;-73
2023/10/05 09:52:38;;;;;;;12.55;3.50;;;18.10;33.40;;;;;;4997264;28;20587;-76
2023/10/05 09:55:07;;;;;;;9.45;3.20;;;18.10;33.00;;;;;;4998043;28;20494;-75
2023/10/05 09:57:41;;;;;;;13.18;3.00;;;18.10;33.30;;;;;;4999238;28;20576;-74
2023/10/05 10:03:03;;;;;;;15.88;3.85;;;18.10;33.30;;;;;;5004788;28;20386;-73
2023/10/05 10:05:48;;;;;;;13.73;3.60;;;18.30;33.30;;;;;;4998812;28;20421;-75
2023/10/05 10:08:24;;;;;;;11.00;3.33;;;18.40;32.90;;;;;;4995707;28;20394;-74
2023/10/05 10:11:07;;;;;;;15.98;3.22;;;18.30;32.00;;;;;;4996706;28;20406;-75
2023/10/05 10:13:37;;;;;;;10.48;3.38;;;18.30;32.10;;;;;;4996578;28;20413;-74
2023/10/05 10:16:22;;;;;;;10.07;3.00;;;18.10;32.30;;;;;;4995347;28;20473;-73
2023/10/05 10:19:04;;;;;;;7.78;2.90;;;18.20;31.80;;;;;;4994528;28;20398;-73
2023/10/05 10:21:35;;;;;;;17.80;3.50;;;18.10;32.40;;;;;;4995077;28;20378;-74
2023/10/05 10:24:06;;;;;;;13.10;3.30;;;18.10;32.80;;;;;;4994763;28;20390;-73
2023/10/05 10:26:40;;;;;;;10.30;3.13;;;18.10;32.30;;;;;;4994990;28;20406;-73
2023/10/05 10:29:16;;;;;;;11.20;3.25;;;18.20;32.30;;;;;;4978038;28;20401;-75
2023/10/05 10:31:42;;;;;;;12.63;3.80;;;18.40;31.30;;;;;;4995160;28;20397;-74
2023/10/05 10:34:28;;;;;;;12.90;3.20;;;18.30;31.70;;;;;;4994207;28;20378;-74
2023/10/05 10:36:56;;;;;;;7.15;2.80;;;18.40;31.80;;;;;;4993867;28;20386;-74
2023/10/05 10:39:23;;;;;;;12.02;3.10;;;18.30;31.10;;;;;;4993961;28;20387;-73
2023/10/05 10:42:18;;;;;;;9.90;3.15;;;18.30;31.50;;;;;;4994848;28;20489;-73
2023/10/05 10:47:19;;;;;;;14.35;3.40;;;18.60;32.10;;;;;;4998217;28;20406;-72
2023/10/05 10:50:15;;;;;;;6.30;3.03;;;18.70;30.60;;;;;;5013557;28;20410;-72
2023/10/05 10:52:43;;;;;;;10.00;3.00;;;18.80;29.90;;;;;;5005796;28;20394;-72
2023/10/05 10:55:14;;;;;;;11.10;3.28;;;18.70;30.50;;;;;;4995985;28;20397;-76
2023/10/05 10:57:54;;;;;;;11.90;3.40;;;18.60;30.80;;;;;;4994436;28;20448;-72
2023/10/05 11:03:15;;;;;;;9.40;3.60;;;18.60;31.20;;;;;;4994629;28;20394;-74
2023/10/05 11:05:43;;;;;;;9.50;3.20;;;18.80;31.00;;;;;;4993249;28;20506;-74
2023/10/05 11:08:12;;;;;;;11.10;3.00;;;18.80;30.20;;;;;;4993643;28;20406;-72
2023/10/05 11:10:42;;;;;;;11.43;3.15;;;18.80;30.70;;;;;;4994170;28;20826;-73
2023/10/05 11:13:14;;;;;;;17.08;3.60;;;18.90;30.00;;;;;;4993459;28;20778;-72
2023/10/05 11:16:09;;;;;;;13.68;3.38;;;19.00;30.70;;;;;;4993760;28;20462;-74
2023/10/05 11:18:39;;;;;;;13.48;3.30;;;19.00;28.90;;;;;;4990708;28;20533;-74
2023/10/05 11:21:06;;;;;;;9.05;2.92;;;19.00;29.70;;;;;;4975925;28;20398;-72
2023/10/05 11:23:47;;;;;;;14.40;3.30;;;19.10;29.00;;;;;;4993380;28;20932;-74
2023/10/05 11:26:33;;;;;;;12.48;3.40;;;19.10;28.90;;;;;;4993222;28;20420;-73
2023/10/05 11:28:59;;;;;;;9.60;3.50;;;19.30;28.70;;;;;;4992929;28;20819;-73
2023/10/05 11:31:33;;;;;;;9.93;3.30;;;19.40;29.20;;;;;;4992427;28;20405;-74
2023/10/05 11:34:03;;;;;;;10.93;3.42;;;19.60;28.00;;;;;;4992853;28;20863;-73
2023/10/05 11:36:33;;;;;;;13.05;3.70;;;19.50;27.80;;;;;;4975569;28;20406;-73
2023/10/05 11:39:00;;;;;;;11.65;3.92;;;19.50;28.10;;;;;;4992603;28;20391;-73
2023/10/05 11:41:29;;;;;;;11.88;3.20;;;19.40;28.10;;;;;;4993114;28;20394;-75
2023/10/05 11:43:58;;;;;;;9.02;3.15;;;19.30;28.50;;;;;;4992967;28;20889;-74
2023/10/05 11:46:42;;;;;;;12.68;3.80;;;19.30;28.70;;;;;;4993590;28;20932;-73
2023/10/05 11:49:10;;;;;;;14.10;3.03;;;19.50;28.80;;;;;;4959446;28;20396;-75
2023/10/05 11:51:41;;;;;;;9.40;2.80;;;19.30;28.90;;;;;;4972243;28;21072;-74
2023/10/05 11:54:08;;;;;;;11.80;3.60;;;19.20;28.80;;;;;;4966278;28;20412;-73
2023/10/05 11:56:34;;;;;;;11.48;3.10;;;19.20;28.80;;;;;;4970335;28;20755;-73
2023/10/05 11:59:00;;;;;;;9.93;2.83;;;19.30;28.60;;;;;;4970023;28;20798;-73
2023/10/05 12:01:27;;;;;;;11.43;3.40;;;19.30;28.80;;;;;;4973644;28;20416;-71
2023/10/05 12:03:54;;;;;;;7.60;2.80;;;19.30;28.80;;;;;;4970271;28;20403;-71
2023/10/05 12:06:25;;;;;;;9.30;3.17;;;19.00;28.90;;;;;;4971412;28;20463;-72
2023/10/05 12:09:00;;;;;;;12.57;3.30;;;18.90;29.30;;;;;;4978371;28;20406;-74
2023/10/05 12:11:26;;;;;;;16.53;3.83;;;18.90;29.60;;;;;;4992117;28;20398;-73
2023/10/05 12:13:56;;;;;;;9.60;2.97;;;19.10;29.30;;;;;;4995684;28;20390;-72
2023/10/05 12:16:27;;;;;;;7.80;3.17;;;19.20;28.90;;;;;;4998997;28;20390;-72
2023/10/05 12:18:54;;;;;;;11.98;3.40;;;19.30;28.70;;;;;;4991736;28;20410;-73
2023/10/05 12:21:21;;;;;;;11.20;3.25;;;19.20;28.60;;;;;;4957886;28;20774;-72
2023/10/05 12:23:47;;;;;;;9.23;3.10;;;19.10;28.60;;;;;;4985625;28;20848;-73
2023/10/05 12:26:12;;;;;;;12.10;3.53;;;19.30;28.30;;;;;;4996923;28;20413;-72
2023/10/05 12:28:41;;;;;;;9.93;2.97;;;19.40;28.20;;;;;;4999631;28;20398;-74
2023/10/05 12:31:09;;;;;;;9.80;3.33;;;19.60;27.60;;;;;;4992457;28;20396;-72
2023/10/05 12:33:41;;;;;;;13.70;3.43;;;19.50;28.30;;;;;;4981941;28;20472;-74
2023/10/05 12:36:08;;;;;;;9.95;2.85;;;19.60;28.10;;;;;;4980707;28;20419;-72
2023/10/05 12:38:35;;;;;;;7.45;3.10;;;19.80;27.00;;;;;;4969176;28;20412;-73
2023/10/05 12:41:12;;;;;;;9.57;3.38;;;20.00;26.80;;;;;;4981699;28;20411;-72
2023/10/05 12:43:45;;;;;;;9.35;2.95;;;20.00;26.60;;;;;;4980812;28;20395;-74
2023/10/05 12:46:11;;;;;;;7.60;2.90;;;20.00;26.40;;;;;;4956321;28;21021;-72
2023/10/05 12:48:40;;;;;;;10.50;3.22;;;20.30;25.80;;;;;;4972675;28;20471;-72
2023/10/05 12:51:07;;;;;;;8.60;2.73;;;20.40;25.70;;;;;;4973830;28;20443;-72
2023/10/05 12:53:34;;;;;;;9.55;3.00;;;20.60;25.10;;;;;;4958008;28;20391;-72
2023/10/05 12:56:01;;;;;;;12.38;3.50;;;20.30;24.90;;;;;;4971525;28;20412;-72
2023/10/05 12:58:27;;;;;;;12.02;3.15;;;20.30;25.60;;;;;;4980967;28;20412;-72
2023/10/05 13:00:53;;;;;;;10.07;3.08;;;20.50;25.20;;;;;;4973584;28;20396;-73
2023/10/05 13:03:24;;;;;;;8.70;2.90;;;20.70;24.50;;;;;;4974032;28;20392;-72
2023/10/05 13:05:51;;;;;;;7.70;3.10;;;20.60;24.10;;;;;;4974784;28;20511;-73
2023/10/05 13:08:20;;;;;;;5.75;2.60;;;20.50;24.30;;;;;;4974583;28;20396;-74
2023/10/05 13:10:46;;;;;;;9.40;3.00;;;20.70;24.10;;;;;;4974994;28;20411;-73
2023/10/05 13:13:21;;;;;;;7.68;3.10;;;20.90;23.70;;;;;;4974488;28;20388;-73
2023/10/05 13:15:47;;;;;;;10.32;3.20;;;20.50;23.90;;;;;;4974253;28;20589;-74
2023/10/05 13:18:17;;;;;;;9.82;3.10;;;20.30;24.30;;;;;;4974399;28;20388;-74
2023/10/05 13:20:50;;;;;;;13.63;3.33;;;20.20;24.60;;;;;;4977587;28;20397;-72
2023/10/05 13:23:19;;;;;;;9.25;3.38;;;20.40;24.20;;;;;;4975178;28;20450;-72
2023/10/05 13:25:48;;;;;;;8.77;3.45;;;20.40;24.30;;;;;;4991611;28;20438;-73
2023/10/05 13:28:17;;;;;;;10.02;3.38;;;20.30;23.80;;;;;;4988115;28;20395;-72